createdAt,value
2024-01-20T13:36:17.590Z,35.6
2024-01-20T13:41:57.814Z,35.6
2024-01-20T13:47:36.231Z,35.6
2024-01-20T13:53:19.751Z,35.6
2024-01-20T13:59:12.925Z,35.6
2024-01-20T14:04:52.999Z,35.5
2024-01-20T14:10:32.366Z,35.4
2024-01-20T14:16:11.205Z,35.4
2024-01-20T14:21:53.226Z,35.4
2024-01-20T14:27:35.584Z,35.3
2024-01-20T14:33:15.423Z,35.3
2024-01-20T14:38:54.510Z,35.3
2024-01-20T14:44:17.738Z,35.2
2024-01-20T14:49:58.474Z,35.1
2024-01-20T14:55:37.489Z,34.8
2024-01-20T15:01:17.154Z,34.7
2024-01-20T15:06:58.500Z,34.8
2024-01-20T15:12:40.295Z,34.7
2024-01-20T15:18:21.187Z,34.6
2024-01-20T15:24:02.894Z,33.6
2024-01-20T15:29:40.811Z,31.9
2024-01-20T15:35:24.798Z,30.6
2024-01-20T15:41:05.722Z,28.9
2024-01-20T15:46:44.101Z,27.1
2024-01-20T15:52:24.433Z,25.6
2024-01-20T15:57:47.647Z,24.4
2024-01-20T16:03:27.019Z,23.5
2024-01-20T16:09:08.982Z,22.6
2024-01-20T16:14:49.884Z,21.9
2024-01-20T16:20:30.786Z,21.4
2024-01-20T16:25:56.433Z,20.9
2024-01-20T16:31:20.741Z,20.5
2024-01-20T16:36:45.394Z,20.3
2024-01-20T16:42:26.216Z,19.9
2024-01-20T16:48:05.347Z,19.7
2024-01-20T16:53:37.151Z,19.4
2024-01-20T16:59:13.983Z,19.3
2024-01-20T17:04:26.141Z,19.1
2024-01-20T17:09:34.633Z,18.9
2024-01-20T17:14:57.840Z,18.8
2024-01-20T17:26:01.422Z,18.6
2024-01-20T17:31:26.509Z,18.5
2024-01-20T17:36:52.836Z,18.4
2024-01-20T17:42:16.634Z,18.3
2024-01-20T17:47:55.869Z,18.3
2024-01-20T17:53:04.475Z,18.3
2024-01-20T17:58:27.815Z,18.3
2024-01-20T18:03:39.345Z,18.3
2024-01-20T18:09:04.453Z,18.1
2024-01-20T18:14:43.178Z,18.1
2024-01-20T18:20:22.900Z,18
2024-01-20T18:26:02.035Z,17.9
2024-01-20T18:31:43.327Z,17.9
2024-01-20T18:37:22.438Z,17.8
2024-01-20T18:43:01.782Z,17.8
2024-01-20T18:48:43.071Z,17.7
2024-01-20T18:54:06.856Z,17.7
2024-01-20T18:59:29.961Z,17.6
2024-01-20T19:05:09.408Z,17.6
2024-01-20T19:10:34.636Z,17.6
2024-01-20T19:15:59.892Z,17.6
2024-01-20T19:21:42.095Z,17.5
2024-01-20T19:27:35.513Z,17.5
2024-01-20T19:33:17.533Z,17.4
2024-01-20T19:38:41.882Z,17.4
2024-01-20T19:44:22.005Z,17.4
2024-01-20T19:50:03.494Z,17.4
2024-01-20T19:55:42.647Z,17.4
2024-01-20T20:01:24.409Z,17.3
2024-01-20T20:12:43.223Z,17.3
2024-01-20T20:17:51.354Z,17.3
2024-01-20T20:23:31.067Z,17.3
2024-01-20T20:29:10.151Z,17.3
2024-01-20T20:35:14.449Z,17.3
2024-01-20T20:40:54.094Z,17.3
2024-01-20T20:46:33.489Z,17.4
2024-01-20T20:52:12.792Z,17.6
2024-01-20T20:57:53.039Z,17.9
2024-01-20T21:03:33.811Z,18.3
2024-01-20T21:14:22.065Z,19.1
2024-01-20T21:19:46.726Z,19.4
2024-01-20T21:25:26.731Z,19.6
2024-01-20T21:31:06.610Z,19.8
2024-01-20T21:36:47.839Z,19.9
2024-01-20T21:42:25.587Z,19.9
2024-01-20T21:48:05.004Z,20.1
2024-01-20T21:53:44.753Z,20.1
2024-01-20T21:59:24.311Z,20.2
2024-01-20T22:05:03.938Z,20.2
2024-01-20T22:10:26.716Z,20.3
2024-01-20T22:16:05.539Z,20.3
2024-01-20T22:21:44.805Z,20.3
2024-01-20T22:27:23.082Z,20.3
2024-01-20T22:33:13.753Z,20.3
2024-01-20T22:38:54.237Z,20.3
2024-01-20T22:44:17.561Z,20.3
2024-01-20T22:49:58.115Z,20.3
2024-01-20T22:55:37.415Z,20.3
2024-01-20T23:01:16.712Z,20.3
2024-01-20T23:06:56.512Z,20.3
2024-01-20T23:12:37.581Z,20.3
2024-01-20T23:18:16.499Z,20.3
2024-01-20T23:23:56.615Z,20.3
2024-01-20T23:29:35.450Z,20.3
2024-01-20T23:35:15.081Z,20.3
2024-01-20T23:40:54.747Z,20.3
2024-01-20T23:46:33.834Z,20.3
2024-01-20T23:57:36.824Z,20.3
